Time;durP1;ratioP1;P1;durP2;ratioP2;P2;SDS_P1;SDS_P2;PMS_P1;PMS_P2;Temp;Humidity;BMP_temperature;BMP_pressure;BME280_temperature;BME280_humidity;BME280_pressure;Samples;Min_cycle;Max_cycle;Signal;HPM_P1;HPM_P2
2023/04/15 00:00:36;;;;;;;9.45;5.40;;;;;;;;;;4888648;28;100378;-78
2023/04/15 00:03:04;;;;;;;9.13;5.68;;;;;;;;;;4889242;28;99922;-79
2023/04/15 00:05:31;;;;;;;11.70;5.55;;;;;;;;;;4886977;28;100382;-79
2023/04/15 00:07:57;;;;;;;8.93;5.00;;;;;;;;;;4889211;28;101959;-80
2023/04/15 00:10:24;;;;;;;6.50;4.80;;;;;;;;;;4889412;28;100087;-79
2023/04/15 00:12:51;;;;;;;9.70;5.60;;;;;;;;;;4888589;28;99814;-79
2023/04/15 00:15:18;;;;;;;7.80;4.88;;;;;;;;;;4888946;28;100883;-79
2023/04/15 00:17:44;;;;;;;11.48;5.82;;;;;;;;;;4888649;28;100029;-78
2023/04/15 00:20:11;;;;;;;7.40;5.28;;;;;;;;;;4891388;28;101592;-78
2023/04/15 00:22:37;;;;;;;10.50;4.93;;;;;;;;;;4888426;28;100516;-79
2023/04/15 00:25:04;;;;;;;7.40;5.43;;;;;;;;;;4889096;28;100162;-79
2023/04/15 00:27:30;;;;;;;7.72;5.00;;;;;;;;;;4888060;28;100791;-80
2023/04/15 00:29:57;;;;;;;11.85;5.13;;;;;;;;;;4883354;28;99049;-79
2023/04/15 00:32:23;;;;;;;9.50;5.53;;;;;;;;;;4879200;28;99841;-79
2023/04/15 00:34:50;;;;;;;4.80;4.22;;;;;;;;;;4889466;28;98893;-79
2023/04/15 00:37:20;;;;;;;7.40;4.63;;;;;;;;;;4906440;28;99985;-79
2023/04/15 00:39:46;;;;;;;7.78;5.20;;;;;;;;;;4895972;28;98825;-79
2023/04/15 00:42:13;;;;;;;9.57;5.15;;;;;;;;;;4891847;28;99945;-79
2023/04/15 00:44:39;;;;;;;9.90;5.47;;;;;;;;;;4895888;28;102699;-79
2023/04/15 00:47:06;;;;;;;14.45;5.32;;;;;;;;;;4897678;28;99551;-79
2023/04/15 00:49:33;;;;;;;5.97;5.35;;;;;;;;;;4896990;28;100021;-79
2023/04/15 00:52:00;;;;;;;5.57;5.07;;;;;;;;;;4893919;28;100477;-79
2023/04/15 00:54:27;;;;;;;8.23;5.68;;;;;;;;;;4887926;28;99675;-79
2023/04/15 00:56:53;;;;;;;17.50;5.63;;;;;;;;;;4888820;28;100575;-79
2023/04/15 00:59:20;;;;;;;12.70;5.40;;;;;;;;;;4887840;28;100432;-79
2023/04/15 01:01:47;;;;;;;9.85;5.32;;;;;;;;;;4889748;28;102399;-79
2023/04/15 01:04:14;;;;;;;5.70;4.72;;;;;;;;;;4888665;28;100861;-78
2023/04/15 01:06:41;;;;;;;7.90;5.05;;;;;;;;;;4888017;28;99889;-78
2023/04/15 01:09:09;;;;;;;6.95;5.20;;;;;;;;;;4887984;28;100366;-79
2023/04/15 01:11:37;;;;;;;7.30;4.95;;;;;;;;;;4886755;28;101560;-79
2023/04/15 01:14:07;;;;;;;9.35;5.28;;;;;;;;;;4888565;28;100628;-79
2023/04/15 01:16:38;;;;;;;9.05;5.43;;;;;;;;;;4887970;28;99867;-79
2023/04/15 01:19:07;;;;;;;8.68;5.38;;;;;;;;;;4891778;28;100220;-78
2023/04/15 01:21:38;;;;;;;7.28;5.05;;;;;;;;;;4891585;28;99223;-79
2023/04/15 01:24:08;;;;;;;13.60;5.22;;;;;;;;;;4894784;28;99426;-78
2023/04/15 01:26:36;;;;;;;8.82;5.10;;;;;;;;;;4890148;28;100953;-78
2023/04/15 01:29:05;;;;;;;13.90;5.88;;;;;;;;;;4905684;28;102015;-79
2023/04/15 01:31:32;;;;;;;8.45;5.43;;;;;;;;;;4891240;28;99342;-79
2023/04/15 01:33:58;;;;;;;6.95;5.05;;;;;;;;;;4890436;28;100821;-78
2023/04/15 01:36:25;;;;;;;8.07;5.68;;;;;;;;;;4890692;28;99489;-78
2023/04/15 01:38:52;;;;;;;6.43;5.35;;;;;;;;;;4891514;28;99923;-79
2023/04/15 01:41:24;;;;;;;6.95;5.75;;;;;;;;;;4891131;28;100623;-79
2023/04/15 01:43:51;;;;;;;5.70;4.75;;;;;;;;;;4905534;28;101501;-79
2023/04/15 01:46:17;;;;;;;8.52;5.15;;;;;;;;;;4894695;28;99117;-79
2023/04/15 01:48:44;;;;;;;8.52;5.32;;;;;;;;;;4892120;28;99215;-78
2023/04/15 01:51:11;;;;;;;6.35;5.80;;;;;;;;;;4890729;28;98498;-78
2023/04/15 01:53:38;;;;;;;13.00;6.07;;;;;;;;;;4889200;28;100580;-78
2023/04/15 01:56:04;;;;;;;5.32;4.80;;;;;;;;;;4891120;28;99341;-78
2023/04/15 01:58:31;;;;;;;7.82;5.35;;;;;;;;;;4888231;28;102633;-78
2023/04/15 02:00:58;;;;;;;11.27;4.93;;;;;;;;;;4889489;28;102092;-77
2023/04/15 02:03:24;;;;;;;7.47;5.15;;;;;;;;;;4889519;28;100290;-78
2023/04/15 02:05:51;;;;;;;9.13;5.05;;;;;;;;;;4890450;28;98886;-78
2023/04/15 02:08:17;;;;;;;10.07;5.68;;;;;;;;;;4894453;28;99765;-78
2023/04/15 02:10:44;;;;;;;6.40;5.18;;;;;;;;;;4891167;28;99915;-78
2023/04/15 02:13:10;;;;;;;5.00;4.63;;;;;;;;;;4890766;28;98691;-78
2023/04/15 02:15:36;;;;;;;6.18;5.57;;;;;;;;;;4888893;28;100505;-78
2023/04/15 02:18:03;;;;;;;8.10;4.80;;;;;;;;;;4890527;28;99020;-78
2023/04/15 02:20:29;;;;;;;6.15;5.13;;;;;;;;;;4890423;28;99958;-79
2023/04/15 02:22:57;;;;;;;7.85;5.18;;;;;;;;;;4905591;28;102124;-78
2023/04/15 02:25:23;;;;;;;6.22;5.22;;;;;;;;;;4890003;28;99461;-78
2023/04/15 02:27:49;;;;;;;9.10;5.70;;;;;;;;;;4890336;28;99194;-78
2023/04/15 02:30:16;;;;;;;6.32;5.82;;;;;;;;;;4892589;28;98598;-78
2023/04/15 02:32:43;;;;;;;6.82;5.20;;;;;;;;;;4890159;28;100167;-78
2023/04/15 02:35:11;;;;;;;7.72;5.53;;;;;;;;;;4890710;28;98803;-77
2023/04/15 02:37:42;;;;;;;10.43;5.85;;;;;;;;;;4890908;28;100083;-77
2023/04/15 02:40:10;;;;;;;8.77;5.37;;;;;;;;;;4888614;28;102337;-78
2023/04/15 02:42:41;;;;;;;7.45;5.43;;;;;;;;;;4888778;28;101683;-77
2023/04/15 02:45:13;;;;;;;7.10;5.45;;;;;;;;;;4888760;28;101676;-78
2023/04/15 02:47:40;;;;;;;6.78;5.55;;;;;;;;;;4888298;28;100157;-77
2023/04/15 02:50:11;;;;;;;10.13;5.97;;;;;;;;;;4892410;28;102017;-77
2023/04/15 02:52:40;;;;;;;12.13;5.95;;;;;;;;;;4888491;28;101539;-77
2023/04/15 02:55:08;;;;;;;9.25;5.80;;;;;;;;;;4887558;28;101728;-77
2023/04/15 02:57:40;;;;;;;5.65;5.15;;;;;;;;;;4888755;28;101214;-77
2023/04/15 03:00:10;;;;;;;7.65;6.20;;;;;;;;;;4888602;28;102013;-77
2023/04/15 03:02:40;;;;;;;7.03;6.30;;;;;;;;;;4889195;28;101227;-79
2023/04/15 03:05:11;;;;;;;14.07;6.25;;;;;;;;;;4890227;28;98585;-79
2023/04/15 03:07:39;;;;;;;9.80;6.05;;;;;;;;;;4888040;28;101810;-78
2023/04/15 03:10:06;;;;;;;11.75;5.93;;;;;;;;;;4888370;28;100758;-78
2023/04/15 03:12:33;;;;;;;6.88;6.28;;;;;;;;;;4898929;28;99914;-78
2023/04/15 03:15:00;;;;;;;12.75;6.97;;;;;;;;;;4887976;28;101671;-78
2023/04/15 03:17:33;;;;;;;7.75;5.78;;;;;;;;;;4888463;28;101437;-78
2023/04/15 03:20:02;;;;;;;11.25;6.45;;;;;;;;;;4888900;28;101753;-77
2023/04/15 03:22:29;;;;;;;6.80;6.20;;;;;;;;;;4888959;28;99045;-78
2023/04/15 03:24:55;;;;;;;8.05;6.82;;;;;;;;;;4888547;28;101672;-78
2023/04/15 03:27:22;;;;;;;9.68;7.10;;;;;;;;;;4888647;28;100300;-78
2023/04/15 03:29:48;;;;;;;8.27;6.68;;;;;;;;;;4887716;28;101811;-77
2023/04/15 03:32:16;;;;;;;7.03;6.35;;;;;;;;;;4888173;28;100077;-77
2023/04/15 03:34:43;;;;;;;8.32;6.78;;;;;;;;;;4907270;28;102680;-78
2023/04/15 03:37:09;;;;;;;9.57;7.13;;;;;;;;;;4889156;28;100637;-78
2023/04/15 03:39:35;;;;;;;9.20;7.07;;;;;;;;;;4888907;28;100241;-78
2023/04/15 03:42:02;;;;;;;7.20;6.50;;;;;;;;;;4889216;28;100308;-78
2023/04/15 03:44:29;;;;;;;7.70;7.03;;;;;;;;;;4888513;28;100447;-78
2023/04/15 03:46:55;;;;;;;7.40;6.65;;;;;;;;;;4889295;28;100504;-77
2023/04/15 03:49:22;;;;;;;8.80;6.85;;;;;;;;;;4889156;28;100565;-78
2023/04/15 03:51:48;;;;;;;8.05;7.20;;;;;;;;;;4889353;28;99731;-77
2023/04/15 03:54:15;;;;;;;12.90;8.02;;;;;;;;;;4889085;28;100311;-77
2023/04/15 03:56:41;;;;;;;10.00;6.88;;;;;;;;;;4891597;28;99419;-78
2023/04/15 03:59:08;;;;;;;7.88;7.05;;;;;;;;;;4889083;28;101671;-77
2023/04/15 04:01:35;;;;;;;10.88;7.85;;;;;;;;;;4888962;28;100292;-78
2023/04/15 04:04:01;;;;;;;7.88;7.10;;;;;;;;;;4888695;28;99941;-77
2023/04/15 04:06:28;;;;;;;9.95;6.88;;;;;;;;;;4888914;28;101557;-77
2023/04/15 04:08:55;;;;;;;10.48;7.38;;;;;;;;;;4889201;28;100190;-77
2023/04/15 04:11:21;;;;;;;10.05;7.53;;;;;;;;;;4887707;28;100035;-78
2023/04/15 04:13:48;;;;;;;12.68;7.65;;;;;;;;;;4889060;28;100373;-77
2023/04/15 04:16:15;;;;;;;9.07;7.30;;;;;;;;;;4889673;28;100253;-77
2023/04/15 04:18:41;;;;;;;12.43;7.35;;;;;;;;;;4891667;28;99523;-77
2023/04/15 04:21:08;;;;;;;7.90;7.10;;;;;;;;;;4888902;28;100114;-76
2023/04/15 04:23:34;;;;;;;13.55;7.85;;;;;;;;;;4888200;28;100223;-76
2023/04/15 04:26:01;;;;;;;14.23;8.18;;;;;;;;;;4888151;28;100194;-76
2023/04/15 04:28:27;;;;;;;11.02;7.50;;;;;;;;;;4888839;28;100417;-77
2023/04/15 04:30:54;;;;;;;8.57;7.72;;;;;;;;;;4888557;28;100042;-76
2023/04/15 04:33:21;;;;;;;9.13;8.18;;;;;;;;;;4887655;28;100189;-76
2023/04/15 04:35:47;;;;;;;12.52;8.40;;;;;;;;;;4888521;28;100672;-77
2023/04/15 04:38:14;;;;;;;9.25;8.00;;;;;;;;;;4891506;28;100172;-77
2023/04/15 04:40:40;;;;;;;15.15;8.23;;;;;;;;;;4888341;28;101495;-77
2023/04/15 04:43:07;;;;;;;11.52;8.30;;;;;;;;;;4888574;28;99587;-77
2023/04/15 04:45:35;;;;;;;10.70;8.40;;;;;;;;;;4888570;28;100196;-77
2023/04/15 04:48:05;;;;;;;9.30;8.32;;;;;;;;;;4887277;28;100368;-77
2023/04/15 04:50:32;;;;;;;10.07;9.15;;;;;;;;;;4888359;28;100956;-77
2023/04/15 04:52:58;;;;;;;14.73;7.95;;;;;;;;;;4887210;28;101008;-76
2023/04/15 04:55:24;;;;;;;9.90;8.95;;;;;;;;;;4888105;28;100090;-77
2023/04/15 04:57:51;;;;;;;10.55;8.52;;;;;;;;;;4888658;28;99619;-77
2023/04/15 05:00:18;;;;;;;9.73;8.63;;;;;;;;;;4890682;28;100668;-77
2023/04/15 05:02:44;;;;;;;13.80;8.43;;;;;;;;;;4888391;28;100418;-77
2023/04/15 05:05:12;;;;;;;9.88;8.85;;;;;;;;;;4888208;28;99936;-77
2023/04/15 05:07:38;;;;;;;10.00;8.40;;;;;;;;;;4887449;28;100339;-77
2023/04/15 05:10:05;;;;;;;11.55;8.93;;;;;;;;;;4888641;28;100247;-77
2023/04/15 05:12:31;;;;;;;10.63;8.20;;;;;;;;;;4887572;28;101164;-76
2023/04/15 05:14:58;;;;;;;12.73;8.38;;;;;;;;;;4887612;28;100496;-76
2023/04/15 05:17:24;;;;;;;9.73;8.75;;;;;;;;;;4887870;28;100535;-78
2023/04/15 05:19:52;;;;;;;10.60;8.15;;;;;;;;;;4888216;28;100131;-78
2023/04/15 05:22:19;;;;;;;10.30;8.82;;;;;;;;;;4890264;28;100046;-78
2023/04/15 05:24:45;;;;;;;12.00;8.88;;;;;;;;;;4887838;28;100707;-77
2023/04/15 05:27:11;;;;;;;11.77;8.90;;;;;;;;;;4886991;28;100337;-77
2023/04/15 05:29:38;;;;;;;12.07;9.15;;;;;;;;;;4887707;28;100448;-77
2023/04/15 05:32:05;;;;;;;11.25;8.88;;;;;;;;;;4889724;28;101525;-77
2023/04/15 05:34:31;;;;;;;10.85;8.65;;;;;;;;;;4888332;28;99069;-76
2023/04/15 05:36:57;;;;;;;9.35;8.45;;;;;;;;;;4886954;28;99996;-76
2023/04/15 05:39:24;;;;;;;9.23;8.25;;;;;;;;;;4887713;28;100325;-76
2023/04/15 05:41:51;;;;;;;9.30;8.40;;;;;;;;;;4887656;28;100426;-77
2023/04/15 05:44:17;;;;;;;12.25;8.60;;;;;;;;;;4890390;28;100202;-76
2023/04/15 05:46:43;;;;;;;9.90;8.90;;;;;;;;;;4887976;28;100264;-77
2023/04/15 05:49:10;;;;;;;12.95;9.13;;;;;;;;;;4887328;28;99947;-76
2023/04/15 05:51:36;;;;;;;9.18;8.32;;;;;;;;;;4887305;28;100374;-77
2023/04/15 05:54:02;;;;;;;10.32;8.55;;;;;;;;;;4887594;28;100674;-77
2023/04/15 05:56:29;;;;;;;14.55;8.98;;;;;;;;;;4886831;28;99197;-77
2023/04/15 05:58:55;;;;;;;10.35;9.05;;;;;;;;;;4887619;28;100488;-76
2023/04/15 06:01:22;;;;;;;13.13;9.82;;;;;;;;;;4886936;28;100494;-77
2023/04/15 06:03:48;;;;;;;10.10;9.00;;;;;;;;;;4889082;28;101107;-77
2023/04/15 06:06:15;;;;;;;10.18;8.82;;;;;;;;;;4893894;28;100923;-77
2023/04/15 06:08:41;;;;;;;9.32;8.43;;;;;;;;;;4891021;28;100395;-76
2023/04/15 06:11:08;;;;;;;10.77;9.55;;;;;;;;;;4890225;28;100481;-76
2023/04/15 06:13:34;;;;;;;10.80;9.70;;;;;;;;;;4890396;28;100174;-76
2023/04/15 06:16:01;;;;;;;8.90;8.07;;;;;;;;;;4890898;28;99810;-76
2023/04/15 06:18:27;;;;;;;10.43;9.43;;;;;;;;;;4890279;28;100079;-77
2023/04/15 06:20:54;;;;;;;14.05;9.43;;;;;;;;;;4889766;28;101197;-76
2023/04/15 06:23:20;;;;;;;11.95;8.93;;;;;;;;;;4889795;28;99935;-77
2023/04/15 06:25:47;;;;;;;13.63;9.93;;;;;;;;;;4887762;28;101451;-76
2023/04/15 06:28:13;;;;;;;11.10;9.27;;;;;;;;;;4893997;28;99680;-76
2023/04/15 06:30:40;;;;;;;14.82;10.05;;;;;;;;;;4890410;28;100423;-76
2023/04/15 06:33:06;;;;;;;12.35;9.60;;;;;;;;;;4885535;28;100408;-77
2023/04/15 06:35:33;;;;;;;11.57;9.27;;;;;;;;;;4889179;28;100199;-76
2023/04/15 06:37:59;;;;;;;12.63;9.13;;;;;;;;;;4888769;28;100224;-76
2023/04/15 06:40:26;;;;;;;10.57;9.55;;;;;;;;;;4882295;28;100965;-76
2023/04/15 06:42:53;;;;;;;9.02;7.82;;;;;;;;;;4888334;28;100953;-76
2023/04/15 06:45:20;;;;;;;11.77;9.90;;;;;;;;;;4887960;28;100696;-76
2023/04/15 06:47:46;;;;;;;10.93;9.70;;;;;;;;;;4890742;28;99533;-77
2023/04/15 06:50:13;;;;;;;9.40;8.45;;;;;;;;;;4887657;28;101664;-75
2023/04/15 06:52:39;;;;;;;14.00;10.32;;;;;;;;;;4888660;28;100392;-76
2023/04/15 06:55:06;;;;;;;9.55;8.65;;;;;;;;;;4889083;28;100241;-75
2023/04/15 06:57:33;;;;;;;12.85;10.25;;;;;;;;;;4889853;28;100336;-75
2023/04/15 07:00:00;;;;;;;13.00;9.70;;;;;;;;;;4888544;28;100295;-75
2023/04/15 07:02:27;;;;;;;10.77;9.75;;;;;;;;;;4888799;28;100471;-76
2023/04/15 07:04:54;;;;;;;13.07;9.20;;;;;;;;;;4879831;28;100703;-75
2023/04/15 07:07:20;;;;;;;12.38;8.85;;;;;;;;;;4884515;28;102633;-76
2023/04/15 07:09:47;;;;;;;12.18;10.98;;;;;;;;;;4890425;28;99525;-75
2023/04/15 07:12:14;;;;;;;9.45;8.63;;;;;;;;;;4888536;28;100106;-75
2023/04/15 07:14:40;;;;;;;10.25;9.15;;;;;;;;;;4884455;28;100833;-76
2023/04/15 07:17:07;;;;;;;10.50;9.23;;;;;;;;;;4889379;28;100536;-75
2023/04/15 07:19:34;;;;;;;10.13;9.18;;;;;;;;;;4887060;28;100404;-75
2023/04/15 07:22:01;;;;;;;9.95;9.15;;;;;;;;;;4886479;28;100541;-75
2023/04/15 07:24:27;;;;;;;8.95;8.15;;;;;;;;;;4887103;28;100209;-75
2023/04/15 07:26:56;;;;;;;14.27;9.35;;;;;;;;;;4887769;28;100738;-76
2023/04/15 07:29:26;;;;;;;11.88;9.05;;;;;;;;;;4887990;28;100101;-74
2023/04/15 07:31:52;;;;;;;9.02;8.23;;;;;;;;;;4892693;28;99856;-75
2023/04/15 07:34:19;;;;;;;10.25;8.85;;;;;;;;;;4889395;28;99621;-75
2023/04/15 07:36:49;;;;;;;9.90;7.90;;;;;;;;;;4888849;28;99358;-76
2023/04/15 07:39:15;;;;;;;10.40;8.23;;;;;;;;;;4888896;28;99316;-82
2023/04/15 07:41:42;;;;;;;7.65;6.95;;;;;;;;;;4888942;28;100054;-76
2023/04/15 07:44:09;;;;;;;6.25;5.75;;;;;;;;;;4886984;28;100025;-76
2023/04/15 07:46:36;;;;;;;7.68;6.90;;;;;;;;;;4889375;28;100429;-77
2023/04/15 07:49:02;;;;;;;11.88;8.38;;;;;;;;;;4888815;28;100487;-76
2023/04/15 07:51:31;;;;;;;6.57;5.97;;;;;;;;;;4889220;28;100408;-76
2023/04/15 07:53:57;;;;;;;10.25;6.50;;;;;;;;;;4892616;28;99878;-76
2023/04/15 07:56:25;;;;;;;8.50;6.78;;;;;;;;;;4888973;28;98656;-76
2023/04/15 07:58:51;;;;;;;8.73;6.55;;;;;;;;;;4887626;28;100729;-76
2023/04/15 08:01:18;;;;;;;7.97;7.30;;;;;;;;;;4887309;28;100140;-76
2023/04/15 08:03:44;;;;;;;8.85;6.07;;;;;;;;;;4887269;28;101063;-77
2023/04/15 08:06:11;;;;;;;7.57;6.45;;;;;;;;;;4890767;28;100190;-76
2023/04/15 08:08:37;;;;;;;6.85;6.35;;;;;;;;;;4890444;28;99954;-77
2023/04/15 08:11:04;;;;;;;6.93;6.32;;;;;;;;;;4890982;28;100275;-76
2023/04/15 08:13:30;;;;;;;6.75;6.15;;;;;;;;;;4888636;28;100499;-77
2023/04/15 08:16:12;;;;;;;4.60;3.60;;;;;;;;;;4890826;28;100060;-77
2023/04/15 08:18:38;;;;;;;5.18;4.78;;;;;;;;;;4888287;28;100423;-76
2023/04/15 08:21:05;;;;;;;4.82;4.13;;;;;;;;;;4889606;28;99956;-77
2023/04/15 08:23:32;;;;;;;5.38;4.97;;;;;;;;;;4888710;28;100239;-76
2023/04/15 08:25:58;;;;;;;5.60;5.20;;;;;;;;;;4887266;28;99353;-76
2023/04/15 08:28:25;;;;;;;5.93;5.43;;;;;;;;;;4889812;28;100180;-74
2023/04/15 08:30:52;;;;;;;7.05;5.30;;;;;;;;;;4890049;28;100861;-75
2023/04/15 08:33:18;;;;;;;5.78;5.30;;;;;;;;;;4886009;28;100068;-77
2023/04/15 08:35:45;;;;;;;4.90;4.50;;;;;;;;;;4880504;28;100663;-75
2023/04/15 08:38:11;;;;;;;4.80;4.40;;;;;;;;;;4888561;28;100115;-75
2023/04/15 08:40:40;;;;;;;4.75;4.35;;;;;;;;;;4887645;28;100433;-80
2023/04/15 08:43:11;;;;;;;6.38;5.78;;;;;;;;;;4886601;28;100289;-77
2023/04/15 08:45:38;;;;;;;5.82;5.25;;;;;;;;;;4885044;28;100141;-77
2023/04/15 08:48:05;;;;;;;5.70;5.05;;;;;;;;;;4885154;28;99891;-77
2023/04/15 08:50:33;;;;;;;5.63;5.07;;;;;;;;;;4887513;28;99680;-77
2023/04/15 08:53:00;;;;;;;4.53;3.90;;;;;;;;;;4887450;28;99815;-77
2023/04/15 08:55:28;;;;;;;4.55;4.15;;;;;;;;;;4888143;28;100838;-77
2023/04/15 08:57:55;;;;;;;5.10;4.55;;;;;;;;;;4889863;28;100203;-77
2023/04/15 09:00:22;;;;;;;4.43;4.05;;;;;;;;;;4887311;28;99810;-78
2023/04/15 09:02:48;;;;;;;3.50;3.22;;;;;;;;;;4888414;28;100456;-77
2023/04/15 09:05:16;;;;;;;3.75;3.45;;;;;;;;;;4886685;28;99565;-78
2023/04/15 09:07:42;;;;;;;4.93;4.15;;;;;;;;;;4886288;28;99115;-78
2023/04/15 09:10:09;;;;;;;6.60;4.70;;;;;;;;;;4889090;28;99604;-77
2023/04/15 09:12:36;;;;;;;4.45;4.18;;;;;;;;;;4887252;28;100862;-77
2023/04/15 09:15:03;;;;;;;6.25;4.38;;;;;;;;;;4887196;28;100296;-77
2023/04/15 09:17:31;;;;;;;3.80;3.55;;;;;;;;;;4885917;28;101164;-77
2023/04/15 09:20:07;;;;;;;3.45;3.20;;;;;;;;;;4873174;28;101747;-77
2023/04/15 09:22:34;;;;;;;3.97;3.55;;;;;;;;;;4885738;28;99763;-77
2023/04/15 09:25:00;;;;;;;9.10;3.13;;;;;;;;;;4888368;28;100064;-77
2023/04/15 09:27:27;;;;;;;3.80;3.60;;;;;;;;;;4886534;28;99275;-76
2023/04/15 09:29:53;;;;;;;4.00;3.75;;;;;;;;;;4888306;28;100358;-77
2023/04/15 09:32:22;;;;;;;3.55;3.25;;;;;;;;;;4887862;28;100083;-76
2023/04/15 09:34:48;;;;;;;3.90;3.70;;;;;;;;;;4887959;28;99950;-76
2023/04/15 09:37:17;;;;;;;5.15;4.30;;;;;;;;;;4885680;28;100263;-76
2023/04/15 09:39:57;;;;;;;;;;;;;;;;;;4888928;28;100142;-76
2023/04/15 09:42:25;;;;;;;5.88;4.10;;;;;;;;;;4892840;28;121310;-77
2023/04/15 09:44:52;;;;;;;4.93;4.18;;;;;;;;;;4891329;28;99993;-76
2023/04/15 09:47:30;;;;;;;5.40;4.05;;;;;;;;;;4889514;28;99388;-76
2023/04/15 09:49:58;;;;;;;4.20;3.90;;;;;;;;;;4890882;28;100195;-79
2023/04/15 09:52:24;;;;;;;5.25;4.28;;;;;;;;;;4889973;28;100357;-80
2023/04/15 09:54:52;;;;;;;4.32;3.92;;;;;;;;;;4889866;28;100534;-78
2023/04/15 09:57:18;;;;;;;5.40;4.90;;;;;;;;;;4888386;28;100160;-79
2023/04/15 09:59:45;;;;;;;5.07;4.55;;;;;;;;;;4883174;28;100330;-77
2023/04/15 10:02:12;;;;;;;5.35;3.95;;;;;;;;;;4892007;28;99175;-76
2023/04/15 10:04:39;;;;;;;4.38;3.90;;;;;;;;;;4893655;28;100211;-80
2023/04/15 10:07:07;;;;;;;2.63;2.47;;;;;;;;;;4890267;28;99254;-77
2023/04/15 10:09:34;;;;;;;3.00;2.80;;;;;;;;;;4888785;28;100435;-79
2023/04/15 10:12:03;;;;;;;2.30;2.20;;;;;;;;;;4891198;28;99958;-80
2023/04/15 10:14:31;;;;;;;2.97;2.38;;;;;;;;;;4889467;28;100381;-80
2023/04/15 10:17:02;;;;;;;2.20;2.08;;;;;;;;;;4890494;28;100150;-80
2023/04/15 10:19:30;;;;;;;2.85;2.65;;;;;;;;;;4890602;28;99286;-79
2023/04/15 10:21:57;;;;;;;2.80;2.60;;;;;;;;;;4890927;28;99892;-83
2023/04/15 10:24:24;;;;;;;2.63;2.42;;;;;;;;;;4889628;28;98925;-80
2023/04/15 10:26:51;;;;;;;6.03;3.13;;;;;;;;;;4908625;28;99823;-83
2023/04/15 10:29:19;;;;;;;7.80;2.75;;;;;;;;;;4896362;28;99678;-85
2023/04/15 10:31:49;;;;;;;3.75;3.42;;;;;;;;;;4882665;28;99375;-79
2023/04/15 10:34:18;;;;;;;4.03;3.58;;;;;;;;;;4885506;28;99814;-79
2023/04/15 10:36:46;;;;;;;4.03;2.80;;;;;;;;;;4871782;28;100547;-78
2023/04/15 10:39:31;;;;;;;2.60;2.10;;;;;;;;;;4870945;28;100686;-79
2023/04/15 10:42:08;;;;;;;5.25;2.40;;;;;;;;;;4889590;28;99910;-78
2023/04/15 10:44:36;;;;;;;2.72;2.53;;;;;;;;;;4887576;28;100062;-78
2023/04/15 10:47:09;;;;;;;2.53;2.33;;;;;;;;;;4890840;28;99885;-78
2023/04/15 10:49:41;;;;;;;5.53;2.85;;;;;;;;;;4893448;28;99798;-80
2023/04/15 10:52:08;;;;;;;2.83;2.60;;;;;;;;;;4889350;28;100519;-78
2023/04/15 10:54:37;;;;;;;2.10;1.98;;;;;;;;;;4888392;28;100111;-79
2023/04/15 10:57:04;;;;;;;3.03;2.83;;;;;;;;;;4880664;28;101169;-79
2023/04/15 10:59:31;;;;;;;2.83;2.60;;;;;;;;;;4887474;28;99923;-79
2023/04/15 11:02:01;;;;;;;2.53;2.42;;;;;;;;;;4887342;28;100179;-78
2023/04/15 11:04:46;;;;;;;3.10;2.53;;;;;;;;;;4890091;28;100082;-79
2023/04/15 11:07:13;;;;;;;2.30;2.10;;;;;;;;;;4888015;28;100194;-78
2023/04/15 11:09:39;;;;;;;2.20;2.00;;;;;;;;;;4893114;28;100055;-79
2023/04/15 11:12:10;;;;;;;3.05;2.30;;;;;;;;;;4889421;28;99924;-80
2023/04/15 11:14:40;;;;;;;2.35;2.15;;;;;;;;;;4887780;28;99584;-79
2023/04/15 11:17:07;;;;;;;1.60;1.50;;;;;;;;;;4890152;28;100386;-78
2023/04/15 11:19:37;;;;;;;2.42;2.22;;;;;;;;;;4883206;28;99561;-78
2023/04/15 11:22:10;;;;;;;3.35;2.08;;;;;;;;;;4880518;28;101317;-79
2023/04/15 11:24:45;;;;;;;5.78;2.28;;;;;;;;;;4884711;28;99599;-80
2023/04/15 11:27:22;;;;;;;2.72;2.05;;;;;;;;;;4888849;28;98955;-79
2023/04/15 11:29:51;;;;;;;2.95;2.28;;;;;;;;;;4890306;28;99757;-78
2023/04/15 11:32:20;;;;;;;2.70;2.50;;;;;;;;;;4892175;28;100319;-76
2023/04/15 11:34:47;;;;;;;3.17;2.30;;;;;;;;;;4889362;28;99083;-77
2023/04/15 11:37:15;;;;;;;2.50;2.38;;;;;;;;;;4904829;28;100755;-79
2023/04/15 11:39:42;;;;;;;2.25;2.08;;;;;;;;;;4890380;28;99842;-79
2023/04/15 11:42:18;;;;;;;4.90;2.70;;;;;;;;;;4888983;28;98747;-79
2023/04/15 11:44:44;;;;;;;2.60;2.40;;;;;;;;;;4883878;28;100366;-78
2023/04/15 11:47:21;;;;;;;3.03;2.50;;;;;;;;;;4880045;28;99753;-78
2023/04/15 11:49:47;;;;;;;2.67;2.47;;;;;;;;;;4871831;28;101050;-76
2023/04/15 11:52:14;;;;;;;2.28;2.05;;;;;;;;;;4870852;28;99309;-76
2023/04/15 11:54:41;;;;;;;3.20;2.75;;;;;;;;;;4890366;28;102209;-79
2023/04/15 11:57:08;;;;;;;3.00;2.10;;;;;;;;;;4881406;28;99771;-79
2023/04/15 11:59:41;;;;;;;2.33;2.20;;;;;;;;;;4878611;28;100933;-79
2023/04/15 12:02:12;;;;;;;3.22;2.35;;;;;;;;;;4892770;28;99488;-79
2023/04/15 12:04:39;;;;;;;3.55;2.60;;;;;;;;;;4889414;28;98726;-79
2023/04/15 12:07:27;;;;;;;2.58;1.98;;;;;;;;;;4892370;28;99965;-79
2023/04/15 12:09:57;;;;;;;1.65;1.45;;;;;;;;;;4892532;28;100342;-79
2023/04/15 12:12:27;;;;;;;2.42;2.05;;;;;;;;;;4893716;28;100073;-80
2023/04/15 12:14:55;;;;;;;2.33;1.92;;;;;;;;;;4892103;28;100162;-78
2023/04/15 12:17:23;;;;;;;1.95;1.52;;;;;;;;;;4910037;28;99625;-77
2023/04/15 12:19:54;;;;;;;2.10;1.50;;;;;;;;;;4896749;28;98809;-78
2023/04/15 12:22:21;;;;;;;1.85;1.27;;;;;;;;;;4894893;28;99812;-79
2023/04/15 12:24:53;;;;;;;2.05;1.85;;;;;;;;;;4894583;28;100384;-78
2023/04/15 12:27:20;;;;;;;3.63;2.60;;;;;;;;;;4893127;28;100159;-79
2023/04/15 12:29:46;;;;;;;4.95;2.03;;;;;;;;;;4888199;28;100899;-77
2023/04/15 12:32:15;;;;;;;2.13;1.92;;;;;;;;;;4887877;28;100272;-78
2023/04/15 12:34:43;;;;;;;2.38;1.95;;;;;;;;;;4888914;28;100015;-77
2023/04/15 12:37:10;;;;;;;3.50;2.22;;;;;;;;;;4887429;28;100128;-77
2023/04/15 12:39:38;;;;;;;5.22;1.92;;;;;;;;;;4891615;28;100657;-77
2023/04/15 12:42:07;;;;;;;3.05;2.05;;;;;;;;;;4889055;28;99807;-78
2023/04/15 12:44:34;;;;;;;2.08;1.70;;;;;;;;;;4885372;28;99270;-78
2023/04/15 12:47:01;;;;;;;2.03;1.75;;;;;;;;;;4885399;28;99939;-78
2023/04/15 12:49:27;;;;;;;1.70;1.60;;;;;;;;;;4883412;28;99832;-78
2023/04/15 12:51:55;;;;;;;2.55;1.70;;;;;;;;;;4871210;28;99691;-79
2023/04/15 12:54:22;;;;;;;2.42;1.90;;;;;;;;;;4885217;28;99216;-79
2023/04/15 12:56:49;;;;;;;2.38;1.40;;;;;;;;;;4888329;28;99840;-79
2023/04/15 12:59:17;;;;;;;3.33;1.50;;;;;;;;;;4887653;28;99671;-79
2023/04/15 13:01:44;;;;;;;2.30;1.60;;;;;;;;;;4890284;28;99377;-78
2023/04/15 13:04:10;;;;;;;2.20;1.77;;;;;;;;;;4887146;28;100655;-79
2023/04/15 13:06:37;;;;;;;3.10;1.88;;;;;;;;;;4887529;28;99944;-79
2023/04/15 13:09:04;;;;;;;4.97;1.75;;;;;;;;;;4887494;28;100135;-79
2023/04/15 13:11:32;;;;;;;2.88;1.95;;;;;;;;;;4886485;28;100357;-78
2023/04/15 13:13:59;;;;;;;3.83;1.80;;;;;;;;;;4886819;28;98977;-79
2023/04/15 13:16:26;;;;;;;6.47;2.08;;;;;;;;;;4886768;28;99110;-79
2023/04/15 13:18:53;;;;;;;2.47;1.40;;;;;;;;;;4888559;28;98570;-78
2023/04/15 13:21:19;;;;;;;4.68;1.65;;;;;;;;;;4890406;28;99207;-78
2023/04/15 13:23:47;;;;;;;10.73;1.98;;;;;;;;;;4888149;28;99374;-79
2023/04/15 13:26:13;;;;;;;3.20;1.77;;;;;;;;;;4886062;28;99700;-80
2023/04/15 13:28:40;;;;;;;5.75;1.88;;;;;;;;;;4899361;28;99597;-80
2023/04/15 13:31:06;;;;;;;1.83;1.67;;;;;;;;;;4882547;28;99391;-78
2023/04/15 13:33:33;;;;;;;5.05;1.77;;;;;;;;;;4887535;28;100158;-79
2023/04/15 13:35:59;;;;;;;4.88;1.52;;;;;;;;;;4879713;28;99547;-76
2023/04/15 13:38:25;;;;;;;2.35;1.40;;;;;;;;;;4887532;28;100232;-79
2023/04/15 13:40:52;;;;;;;1.73;1.60;;;;;;;;;;4887627;28;99015;-78
2023/04/15 13:43:18;;;;;;;5.47;1.70;;;;;;;;;;4888873;28;98918;-77
2023/04/15 13:45:45;;;;;;;1.98;1.65;;;;;;;;;;4887510;28;99439;-79
2023/04/15 13:48:12;;;;;;;1.60;1.30;;;;;;;;;;4885460;28;100070;-79
2023/04/15 13:50:38;;;;;;;2.67;1.58;;;;;;;;;;4887973;28;101175;-78
2023/04/15 13:53:07;;;;;;;6.82;2.00;;;;;;;;;;4888016;28;99938;-77
2023/04/15 13:55:34;;;;;;;3.95;1.50;;;;;;;;;;4875539;28;102138;-78
2023/04/15 13:58:00;;;;;;;1.92;1.20;;;;;;;;;;4883824;28;100482;-78
2023/04/15 14:00:27;;;;;;;1.77;1.15;;;;;;;;;;4882869;28;100183;-80
2023/04/15 14:02:53;;;;;;;1.33;1.23;;;;;;;;;;4885969;28;99110;-79
2023/04/15 14:05:20;;;;;;;1.63;1.40;;;;;;;;;;4890757;28;99615;-79
2023/04/15 14:07:46;;;;;;;1.95;1.40;;;;;;;;;;4885636;28;99768;-82
2023/04/15 14:10:12;;;;;;;2.10;1.65;;;;;;;;;;4886483;28;100361;-80
2023/04/15 14:12:39;;;;;;;7.50;1.58;;;;;;;;;;4887736;28;98960;-80
2023/04/15 14:15:06;;;;;;;5.25;1.60;;;;;;;;;;4883656;28;99946;-81
2023/04/15 14:17:33;;;;;;;4.20;1.80;;;;;;;;;;4873251;28;100689;-80
2023/04/15 14:19:59;;;;;;;6.13;2.40;;;;;;;;;;4869082;28;99182;-79
2023/04/15 14:22:26;;;;;;;7.22;2.25;;;;;;;;;;4875047;28;100380;-80
2023/04/15 14:24:54;;;;;;;5.35;2.10;;;;;;;;;;4873712;28;101306;-80
2023/04/15 14:27:20;;;;;;;4.43;2.08;;;;;;;;;;4874493;28;100227;-79
2023/04/15 14:29:48;;;;;;;2.05;1.85;;;;;;;;;;4886319;28;99768;-79
2023/04/15 14:32:14;;;;;;;3.95;2.00;;;;;;;;;;4889214;28;100086;-79